createdAt,value
2023-01-25T00:00:49.076Z,10.00
2023-01-25T00:03:16.531Z,11.17
2023-01-25T00:05:43.844Z,9.60
2023-01-25T00:08:11.037Z,10.87
2023-01-25T00:10:38.240Z,11.53
2023-01-25T00:13:05.682Z,11.17
2023-01-25T00:15:32.984Z,11.37
2023-01-25T00:18:00.285Z,9.30
2023-01-25T00:20:27.635Z,9.47
2023-01-25T00:22:54.873Z,10.17
2023-01-25T00:25:22.096Z,10.37
2023-01-25T00:27:49.356Z,9.70
2023-01-25T00:30:17.269Z,11.47
2023-01-25T00:33:22.671Z,10.57
2023-01-25T00:35:49.991Z,9.80
2023-01-25T00:38:33.827Z,10.83
2023-01-25T00:41:01.110Z,9.73
2023-01-25T00:43:28.800Z,10.77
2023-01-25T00:46:02.263Z,10.17
2023-01-25T00:48:30.515Z,10.50
2023-01-25T00:51:01.876Z,11.27
2023-01-25T00:53:29.333Z,11.40
2023-01-25T00:55:56.836Z,11.07
2023-01-25T00:58:25.547Z,10.73
2023-01-25T01:00:53.886Z,11.50
2023-01-25T01:03:21.613Z,11.40
2023-01-25T01:05:49.000Z,10.60
2023-01-25T01:08:16.850Z,10.60
2023-01-25T01:10:45.424Z,9.90
2023-01-25T01:13:12.647Z,10.90
2023-01-25T01:15:41.804Z,10.17
2023-01-25T01:18:08.997Z,10.80
2023-01-25T01:20:36.271Z,10.60
2023-01-25T01:23:03.523Z,10.30
2023-01-25T01:25:30.755Z,11.27
2023-01-25T01:27:58.007Z,10.67
2023-01-25T01:30:25.459Z,9.87
2023-01-25T01:32:53.084Z,11.33
2023-01-25T01:35:20.374Z,9.87
2023-01-25T01:37:47.543Z,10.40
2023-01-25T01:40:16.389Z,9.93
2023-01-25T01:43:06.843Z,11.63
2023-01-25T01:45:48.142Z,10.33
2023-01-25T01:48:25.576Z,9.93
2023-01-25T01:50:56.681Z,10.03
2023-01-25T01:53:26.072Z,10.60
2023-01-25T01:55:58.454Z,11.33
2023-01-25T01:58:26.638Z,11.00
2023-01-25T02:00:54.011Z,10.97
2023-01-25T02:03:21.927Z,11.00
2023-01-25T02:06:33.551Z,10.93
2023-01-25T02:09:01.745Z,11.57
2023-01-25T02:11:30.717Z,10.57
2023-01-25T02:13:59.665Z,10.43
2023-01-25T02:16:28.292Z,10.33
2023-01-25T02:18:58.990Z,9.43
2023-01-25T02:21:26.321Z,11.37
2023-01-25T02:24:01.846Z,10.93
2023-01-25T02:26:31.058Z,10.93
2023-01-25T02:29:05.640Z,11.07
2023-01-25T02:31:33.550Z,11.27
2023-01-25T02:34:00.899Z,11.03
2023-01-25T02:36:32.180Z,11.40
2023-01-25T02:39:08.463Z,10.87
2023-01-25T02:41:42.041Z,10.33
2023-01-25T02:44:25.041Z,8.90
2023-01-25T02:46:52.792Z,9.13
2023-01-25T02:49:20.933Z,10.57
2023-01-25T02:51:52.634Z,10.90
2023-01-25T02:54:20.822Z,10.57
2023-01-25T02:56:48.304Z,10.27
2023-01-25T02:59:16.343Z,10.73
2023-01-25T03:01:48.638Z,9.90
2023-01-25T03:04:16.542Z,10.97
2023-01-25T03:06:43.791Z,10.40
2023-01-25T03:09:11.812Z,10.23
2023-01-25T03:11:43.099Z,10.17
2023-01-25T03:14:11.105Z,10.97
2023-01-25T03:16:38.424Z,11.43
2023-01-25T03:19:06.549Z,11.00
2023-01-25T03:21:33.866Z,10.60
2023-01-25T03:24:02.186Z,10.23
2023-01-25T03:26:58.196Z,10.47
2023-01-25T03:29:41.625Z,11.63
2023-01-25T03:32:13.861Z,9.60
2023-01-25T03:34:41.523Z,9.63
2023-01-25T03:37:09.471Z,11.67
2023-01-25T03:39:38.705Z,10.83
2023-01-25T03:42:05.980Z,10.33
2023-01-25T03:44:33.343Z,10.60
2023-01-25T03:47:00.719Z,10.17
2023-01-25T03:49:29.072Z,10.00
2023-01-25T03:51:58.030Z,10.63
2023-01-25T03:54:34.268Z,11.67
2023-01-25T03:57:02.019Z,11.20
2023-01-25T03:59:30.267Z,13.33
2023-01-25T04:01:57.611Z,11.97
2023-01-25T04:04:24.888Z,12.43
2023-01-25T04:06:53.715Z,12.57
2023-01-25T04:09:22.997Z,12.57
2023-01-25T04:11:53.230Z,12.67
2023-01-25T04:14:35.007Z,11.53
2023-01-25T04:17:10.760Z,10.37
2023-01-25T04:19:40.794Z,11.27
2023-01-25T04:22:12.947Z,13.67
2023-01-25T04:24:40.494Z,11.33
2023-01-25T04:27:08.961Z,11.03
2023-01-25T04:29:43.797Z,11.43
2023-01-25T04:32:16.846Z,10.47
2023-01-25T04:34:44.173Z,10.50
2023-01-25T04:37:15.791Z,11.00
2023-01-25T04:39:56.692Z,11.03
2023-01-25T04:42:38.602Z,12.80
2023-01-25T04:45:06.886Z,11.00
2023-01-25T04:47:35.335Z,10.87
2023-01-25T04:50:03.212Z,10.83
2023-01-25T04:52:31.523Z,12.57
2023-01-25T04:54:58.829Z,11.60
2023-01-25T04:57:26.287Z,11.63
2023-01-25T04:59:53.917Z,10.70
2023-01-25T05:02:23.265Z,10.40
2023-01-25T05:04:50.636Z,11.63
2023-01-25T05:07:20.232Z,11.23
2023-01-25T05:09:47.654Z,10.80
2023-01-25T05:12:15.014Z,10.70
2023-01-25T05:14:53.739Z,12.47
2023-01-25T05:17:21.570Z,13.63
2023-01-25T05:19:48.845Z,11.57
2023-01-25T05:22:20.989Z,11.63
2023-01-25T05:24:51.763Z,12.90
2023-01-25T05:27:21.088Z,11.10
2023-01-25T05:30:09.139Z,11.53
2023-01-25T05:32:41.753Z,11.40
2023-01-25T05:35:09.902Z,13.03
2023-01-25T05:37:38.272Z,12.50
2023-01-25T05:40:09.261Z,12.70
2023-01-25T05:42:38.842Z,12.43
2023-01-25T05:45:11.984Z,11.70
2023-01-25T05:47:40.504Z,11.23
2023-01-25T05:50:09.541Z,12.00
2023-01-25T05:53:03.018Z,11.87
2023-01-25T05:55:30.856Z,12.40
2023-01-25T05:58:03.131Z,11.80
2023-01-25T06:00:30.402Z,13.47
2023-01-25T06:03:01.101Z,12.87
2023-01-25T06:05:30.027Z,13.17
2023-01-25T06:07:58.638Z,12.43
2023-01-25T06:10:30.261Z,12.90
2023-01-25T06:12:59.419Z,12.03
2023-01-25T06:15:26.984Z,11.40
2023-01-25T06:17:57.768Z,11.93
2023-01-25T06:20:32.772Z,12.33
2023-01-25T06:23:05.988Z,13.20
2023-01-25T06:25:33.212Z,12.40
2023-01-25T06:28:00.414Z,11.47
2023-01-25T06:30:27.671Z,10.97
2023-01-25T06:32:57.520Z,13.00
2023-01-25T06:35:24.784Z,11.80
2023-01-25T06:37:54.632Z,12.63
2023-01-25T06:40:21.897Z,12.63
2023-01-25T06:42:49.117Z,12.70
2023-01-25T06:45:16.526Z,14.23
2023-01-25T06:47:44.608Z,13.50
2023-01-25T06:50:12.472Z,12.77
2023-01-25T06:52:40.035Z,13.47
2023-01-25T06:55:10.440Z,13.77
2023-01-25T06:57:37.809Z,13.00
2023-01-25T07:00:05.932Z,12.37
2023-01-25T07:02:33.267Z,13.30
2023-01-25T07:05:00.775Z,14.00
2023-01-25T07:07:28.171Z,13.33
2023-01-25T07:09:55.983Z,13.97
2023-01-25T07:12:23.216Z,13.67
2023-01-25T07:14:50.474Z,13.33
2023-01-25T07:17:17.838Z,13.40
2023-01-25T07:19:45.124Z,14.00
2023-01-25T07:22:12.356Z,14.23
2023-01-25T07:24:39.610Z,13.67
2023-01-25T07:27:06.864Z,14.63
2023-01-25T07:29:34.107Z,13.60
2023-01-25T07:32:01.377Z,13.33
2023-01-25T07:34:28.963Z,12.63
2023-01-25T07:36:56.206Z,11.93
2023-01-25T07:39:23.792Z,14.10
2023-01-25T07:41:51.015Z,14.20
2023-01-25T07:44:20.287Z,15.47
2023-01-25T07:46:50.806Z,14.27
2023-01-25T07:49:18.143Z,14.30
2023-01-25T07:51:45.494Z,13.87
2023-01-25T07:54:13.073Z,14.33
2023-01-25T07:56:40.832Z,14.27
2023-01-25T07:59:09.905Z,13.27
2023-01-25T08:01:38.930Z,13.93
2023-01-25T08:04:07.088Z,14.60
2023-01-25T08:06:38.936Z,14.90
2023-01-25T08:09:12.003Z,13.90
2023-01-25T08:11:39.457Z,15.10
2023-01-25T08:14:06.771Z,15.50
2023-01-25T08:16:34.316Z,14.07
2023-01-25T08:19:03.387Z,16.17
2023-01-25T08:21:33.416Z,15.83
2023-01-25T08:24:03.842Z,15.80
2023-01-25T08:26:31.149Z,16.27
2023-01-25T08:28:58.465Z,15.57
2023-01-25T08:31:31.697Z,16.80
2023-01-25T08:34:00.684Z,16.30
2023-01-25T08:36:28.347Z,15.00
2023-01-25T08:38:57.776Z,17.27
2023-01-25T08:41:26.112Z,16.37
2023-01-25T08:43:55.175Z,17.23
2023-01-25T08:46:25.322Z,18.23
2023-01-25T08:48:57.208Z,17.37
2023-01-25T08:51:25.350Z,17.00
2023-01-25T08:53:52.921Z,18.00
2023-01-25T08:56:20.358Z,16.73
2023-01-25T08:58:49.865Z,15.93
2023-01-25T09:01:19.546Z,16.60
2023-01-25T09:03:49.040Z,16.67
2023-01-25T09:06:17.418Z,17.07
2023-01-25T09:08:44.711Z,16.97
2023-01-25T09:11:18.156Z,15.37
2023-01-25T09:13:45.832Z,17.30
2023-01-25T09:16:28.923Z,16.50
2023-01-25T09:19:02.066Z,16.77
2023-01-25T09:21:30.071Z,16.63
2023-01-25T09:24:06.015Z,18.73
2023-01-25T09:26:39.406Z,17.50
2023-01-25T09:29:08.008Z,15.97
2023-01-25T09:31:40.069Z,17.03
2023-01-25T09:34:20.675Z,17.30
2023-01-25T09:36:47.933Z,17.47
2023-01-25T09:39:15.196Z,17.77
2023-01-25T09:41:45.567Z,16.97
2023-01-25T09:44:43.540Z,17.87
2023-01-25T09:47:21.710Z,16.93
2023-01-25T09:50:19.914Z,17.97
2023-01-25T09:53:10.901Z,17.53
2023-01-25T09:55:39.330Z,19.20
2023-01-25T09:58:14.206Z,16.83
2023-01-25T10:00:45.563Z,17.20
2023-01-25T10:03:22.184Z,17.53
2023-01-25T10:05:51.742Z,17.83
2023-01-25T10:08:38.758Z,19.80
2023-01-25T10:11:27.984Z,17.90
2023-01-25T10:13:57.746Z,17.73
2023-01-25T10:16:32.069Z,17.40
2023-01-25T10:19:22.732Z,18.77
2023-01-25T10:21:59.739Z,19.33
2023-01-25T10:24:53.561Z,19.30
2023-01-25T10:27:35.492Z,19.07
2023-01-25T10:30:26.078Z,19.73
2023-01-25T10:32:57.850Z,18.03
2023-01-25T10:35:39.081Z,20.07
2023-01-25T10:38:17.404Z,19.30
2023-01-25T10:40:53.473Z,20.23
2023-01-25T10:43:25.835Z,20.37
2023-01-25T10:45:53.118Z,18.23
2023-01-25T10:48:29.948Z,19.50
2023-01-25T10:50:57.902Z,18.37
2023-01-25T10:53:28.286Z,20.73
2023-01-25T10:55:58.611Z,18.70
2023-01-25T10:58:36.623Z,19.57
2023-01-25T11:01:10.835Z,19.03
2023-01-25T11:03:41.163Z,22.40
2023-01-25T11:06:09.555Z,20.10
2023-01-25T11:08:43.142Z,18.30
2023-01-25T11:11:32.293Z,19.57
2023-01-25T11:13:59.708Z,20.40
2023-01-25T11:16:37.767Z,20.50
2023-01-25T11:19:30.498Z,20.13
2023-01-25T11:21:59.651Z,18.03
2023-01-25T11:24:32.243Z,19.80
2023-01-25T11:27:13.801Z,18.77
2023-01-25T11:29:41.105Z,19.03
2023-01-25T11:32:22.704Z,18.00
2023-01-25T11:34:54.120Z,19.43
2023-01-25T11:37:43.222Z,19.70
2023-01-25T11:40:32.447Z,20.70
2023-01-25T11:43:39.789Z,21.03
2023-01-25T11:46:30.655Z,19.50
2023-01-25T11:49:18.707Z,20.20
2023-01-25T11:52:01.240Z,19.80
2023-01-25T11:54:52.634Z,21.17
2023-01-25T11:57:39.930Z,21.80
2023-01-25T12:00:42.729Z,21.33
2023-01-25T12:03:16.904Z,20.37
2023-01-25T12:06:05.161Z,20.43
2023-01-25T12:08:38.248Z,21.57
2023-01-25T12:11:15.803Z,20.80
2023-01-25T12:13:58.102Z,21.23
2023-01-25T12:16:44.716Z,21.20
2023-01-25T12:19:25.393Z,22.30
2023-01-25T12:22:12.533Z,21.67
2023-01-25T12:24:51.154Z,20.53
2023-01-25T12:27:21.701Z,20.47
2023-01-25T12:30:00.882Z,20.30
2023-01-25T12:32:50.143Z,19.70
2023-01-25T12:35:20.107Z,19.13
2023-01-25T12:37:51.151Z,18.50
2023-01-25T12:40:42.717Z,19.10
2023-01-25T12:43:18.763Z,18.53
2023-01-25T12:45:46.562Z,19.23
2023-01-25T12:48:41.232Z,20.63
2023-01-25T12:51:09.379Z,19.93
2023-01-25T12:53:40.643Z,19.63
2023-01-25T12:56:13.799Z,20.73
2023-01-25T12:58:47.083Z,20.80
2023-01-25T13:01:35.692Z,19.90
2023-01-25T13:04:31.175Z,19.77
2023-01-25T13:07:26.718Z,21.27
2023-01-25T13:10:03.301Z,20.77
2023-01-25T13:12:51.764Z,20.40
2023-01-25T13:15:55.356Z,21.57
2023-01-25T13:18:28.562Z,23.13
2023-01-25T13:21:00.991Z,20.97
2023-01-25T13:23:51.937Z,20.37
2023-01-25T13:26:22.006Z,20.63
2023-01-25T13:28:53.740Z,20.87
2023-01-25T13:31:56.543Z,21.20
2023-01-25T13:34:35.608Z,19.73
2023-01-25T13:37:18.343Z,20.00
2023-01-25T13:39:51.764Z,18.80
2023-01-25T13:42:27.932Z,18.80
2023-01-25T13:45:02.251Z,17.17
2023-01-25T13:47:38.221Z,18.23
2023-01-25T13:50:26.603Z,17.57
2023-01-25T13:52:59.455Z,19.50
2023-01-25T13:55:27.863Z,19.43
2023-01-25T13:58:22.731Z,18.83
2023-01-25T14:00:57.476Z,19.00
2023-01-25T14:03:36.599Z,19.63
2023-01-25T14:06:04.519Z,19.20
2023-01-25T14:08:32.635Z,19.13
2023-01-25T14:11:00.214Z,20.37
2023-01-25T14:13:27.550Z,18.73
2023-01-25T14:15:58.714Z,18.37
2023-01-25T14:18:32.671Z,18.60
2023-01-25T14:21:17.841Z,19.03
2023-01-25T14:23:45.956Z,18.33
2023-01-25T14:26:23.051Z,18.57
2023-01-25T14:29:01.253Z,18.63
2023-01-25T14:31:37.086Z,17.27
2023-01-25T14:34:06.128Z,21.43
2023-01-25T14:36:34.867Z,19.27
2023-01-25T14:39:04.749Z,19.93
2023-01-25T14:41:36.112Z,18.57
2023-01-25T14:44:05.892Z,18.57
2023-01-25T14:46:37.993Z,18.77
2023-01-25T14:49:25.540Z,19.10
2023-01-25T14:52:14.368Z,21.70
2023-01-25T14:54:59.366Z,19.60
2023-01-25T14:57:36.894Z,21.57
2023-01-25T15:00:21.779Z,19.43
2023-01-25T15:02:56.269Z,20.60
2023-01-25T15:05:29.808Z,18.50
2023-01-25T15:08:06.347Z,19.30
2023-01-25T15:10:35.491Z,18.77
2023-01-25T15:13:22.761Z,20.90
2023-01-25T15:16:02.000Z,22.33
2023-01-25T15:18:54.091Z,21.40
2023-01-25T15:21:26.689Z,21.07
2023-01-25T15:23:55.684Z,21.33
2023-01-25T15:26:28.450Z,24.07
2023-01-25T15:28:58.264Z,21.57
2023-01-25T15:31:29.783Z,21.67
2023-01-25T15:33:58.564Z,23.00
2023-01-25T15:36:26.181Z,21.17
2023-01-25T15:38:53.762Z,22.63
2023-01-25T15:41:21.337Z,23.13
2023-01-25T15:43:49.483Z,23.80
2023-01-25T15:46:21.804Z,23.00
2023-01-25T15:48:50.269Z,22.93
2023-01-25T15:51:18.414Z,25.17
2023-01-25T15:53:46.912Z,24.50
2023-01-25T15:56:21.266Z,23.57
2023-01-25T15:58:53.819Z,23.47
2023-01-25T16:01:27.479Z,23.03
2023-01-25T16:03:56.145Z,22.00
2023-01-25T16:06:35.650Z,22.83
2023-01-25T16:09:22.789Z,21.20
2023-01-25T16:11:55.746Z,23.07
2023-01-25T16:14:28.853Z,23.60
2023-01-25T16:16:58.648Z,24.77
2023-01-25T16:19:26.212Z,23.83
2023-01-25T16:21:53.544Z,24.53
2023-01-25T16:24:21.070Z,24.57
2023-01-25T16:26:49.749Z,23.97
2023-01-25T16:29:17.008Z,23.70
2023-01-25T16:31:44.440Z,24.23
2023-01-25T16:34:12.033Z,23.37
2023-01-25T16:36:39.763Z,22.77
2023-01-25T16:39:16.077Z,22.67
2023-01-25T16:41:43.356Z,22.77
2023-01-25T16:44:10.615Z,23.70
2023-01-25T16:46:37.948Z,23.70
2023-01-25T16:49:08.924Z,22.93
2023-01-25T16:51:37.127Z,22.80
2023-01-25T16:54:04.684Z,23.53
2023-01-25T16:56:33.528Z,23.37
2023-01-25T16:59:03.863Z,24.70
2023-01-25T17:01:31.651Z,22.30
2023-01-25T17:03:59.239Z,21.83
2023-01-25T17:06:28.315Z,23.10
2023-01-25T17:08:57.977Z,24.00
2023-01-25T17:11:26.457Z,24.57
2023-01-25T17:13:58.883Z,26.30
2023-01-25T17:16:28.544Z,26.53
2023-01-25T17:18:58.715Z,24.73
2023-01-25T17:21:27.143Z,25.60
2023-01-25T17:23:56.330Z,28.10
2023-01-25T17:26:24.214Z,24.13
2023-01-25T17:28:52.363Z,29.97
2023-01-25T17:31:26.581Z,26.13
2023-01-25T17:33:54.822Z,26.53
2023-01-25T17:36:22.930Z,25.50
2023-01-25T17:38:50.256Z,24.73
2023-01-25T17:41:17.666Z,25.60
2023-01-25T17:43:45.017Z,27.27
2023-01-25T17:46:22.508Z,23.20
2023-01-25T17:48:49.759Z,26.67
2023-01-25T17:51:17.055Z,24.50
2023-01-25T17:53:44.423Z,22.90
2023-01-25T17:56:12.852Z,26.20
2023-01-25T17:58:41.440Z,26.57
2023-01-25T18:01:15.045Z,21.90
2023-01-25T18:03:43.698Z,26.13
2023-01-25T18:06:12.516Z,26.23
2023-01-25T18:08:45.736Z,24.70
2023-01-25T18:11:15.418Z,24.10
2023-01-25T18:13:47.765Z,23.87
2023-01-25T18:16:17.292Z,22.93
2023-01-25T18:18:45.454Z,22.93
2023-01-25T18:21:16.006Z,21.63
2023-01-25T18:23:47.299Z,23.63
2023-01-25T18:26:24.019Z,23.37
2023-01-25T18:28:54.637Z,21.60
2023-01-25T18:31:22.038Z,23.77
2023-01-25T18:33:49.520Z,24.07
2023-01-25T18:36:18.442Z,24.10
2023-01-25T18:38:45.948Z,22.13
2023-01-25T18:41:13.529Z,20.50
2023-01-25T18:43:40.930Z,20.37
2023-01-25T18:46:09.594Z,20.73
2023-01-25T18:48:37.470Z,19.77
2023-01-25T18:51:13.006Z,17.50
2023-01-25T18:53:42.542Z,16.90
2023-01-25T18:56:15.872Z,17.37
2023-01-25T18:58:44.099Z,16.90
2023-01-25T19:01:15.078Z,16.57
2023-01-25T19:03:43.768Z,15.03
2023-01-25T19:06:12.062Z,19.60
2023-01-25T19:08:41.410Z,15.73
2023-01-25T19:11:11.616Z,13.23
2023-01-25T19:13:40.540Z,13.03
2023-01-25T19:16:20.249Z,13.97
2023-01-25T19:18:52.251Z,12.30
2023-01-25T19:21:25.064Z,11.30
2023-01-25T19:23:54.267Z,13.27
2023-01-25T19:26:24.650Z,14.93
2023-01-25T19:28:53.073Z,14.03
2023-01-25T19:31:23.202Z,13.60
2023-01-25T19:34:03.252Z,12.90
2023-01-25T19:36:32.662Z,11.80
2023-01-25T19:39:00.224Z,12.90
2023-01-25T19:41:29.601Z,13.40
2023-01-25T19:44:02.444Z,13.33
2023-01-25T19:46:35.610Z,12.60
2023-01-25T19:49:05.441Z,13.07
2023-01-25T19:51:35.152Z,13.20
2023-01-25T19:54:08.317Z,12.67
2023-01-25T19:56:39.477Z,12.47
2023-01-25T19:59:11.295Z,14.90
2023-01-25T20:01:43.762Z,13.67
2023-01-25T20:04:13.726Z,13.90
2023-01-25T20:06:41.643Z,13.50
2023-01-25T20:09:15.139Z,13.13
2023-01-25T20:11:42.710Z,13.53
2023-01-25T20:14:12.761Z,14.63
2023-01-25T20:16:40.250Z,14.03
2023-01-25T20:19:07.587Z,13.23
2023-01-25T20:21:38.096Z,17.53
2023-01-25T20:24:06.342Z,13.60
2023-01-25T20:26:37.338Z,12.13
2023-01-25T20:29:05.893Z,13.27
2023-01-25T20:31:45.172Z,14.30
2023-01-25T20:34:23.255Z,13.93
2023-01-25T20:36:51.266Z,11.53
2023-01-25T20:39:20.619Z,11.87
2023-01-25T20:41:48.678Z,13.57
2023-01-25T20:44:17.979Z,13.37
2023-01-25T20:46:46.000Z,13.87
2023-01-25T20:49:18.306Z,14.17
2023-01-25T20:51:46.764Z,15.57
2023-01-25T20:54:15.129Z,14.17
2023-01-25T20:56:42.973Z,12.00
2023-01-25T20:59:10.792Z,10.30
2023-01-25T21:01:38.245Z,10.03
2023-01-25T21:04:07.925Z,11.23
2023-01-25T21:06:36.580Z,11.60
2023-01-25T21:09:04.599Z,10.93
2023-01-25T21:11:32.663Z,10.43
2023-01-25T21:14:00.034Z,11.77
2023-01-25T21:16:27.787Z,10.87
2023-01-25T21:18:57.776Z,11.47
2023-01-25T21:21:27.641Z,11.80
2023-01-25T21:23:57.659Z,11.70
2023-01-25T21:26:27.204Z,13.13
2023-01-25T21:28:55.167Z,11.10
2023-01-25T21:31:28.760Z,12.67
2023-01-25T21:33:56.310Z,10.93
2023-01-25T21:36:23.956Z,11.37
2023-01-25T21:38:52.992Z,11.30
2023-01-25T21:41:24.445Z,10.43
2023-01-25T21:44:12.239Z,11.13
2023-01-25T21:46:39.980Z,11.63
2023-01-25T21:49:27.735Z,12.57
2023-01-25T21:51:59.065Z,11.23
2023-01-25T21:54:28.429Z,11.30
2023-01-25T21:56:57.468Z,10.27
2023-01-25T21:59:25.626Z,10.73
2023-01-25T22:01:53.910Z,10.13
2023-01-25T22:04:23.737Z,12.17
2023-01-25T22:06:52.574Z,13.13
2023-01-25T22:09:19.999Z,14.30
2023-01-25T22:11:48.238Z,15.80
2023-01-25T22:14:15.712Z,15.43
2023-01-25T22:16:42.992Z,15.57
2023-01-25T22:19:10.298Z,14.37
2023-01-25T22:21:37.925Z,14.97
2023-01-25T22:24:06.136Z,16.50
2023-01-25T22:26:45.899Z,15.17
2023-01-25T22:29:14.090Z,14.07
2023-01-25T22:31:41.716Z,16.20
2023-01-25T22:34:09.554Z,15.17
2023-01-25T22:36:38.054Z,14.50
2023-01-25T22:39:05.315Z,14.37
2023-01-25T22:41:33.130Z,14.77
2023-01-25T22:44:00.393Z,16.77
2023-01-25T22:46:29.118Z,14.13
2023-01-25T22:48:58.327Z,16.13
2023-01-25T22:51:28.099Z,14.93
2023-01-25T22:53:56.971Z,14.73
2023-01-25T22:56:31.742Z,16.07
2023-01-25T22:59:00.017Z,15.37
2023-01-25T23:01:33.535Z,16.50
2023-01-25T23:04:02.494Z,19.77
2023-01-25T23:06:34.093Z,18.63
2023-01-25T23:09:04.149Z,18.43
2023-01-25T23:11:36.943Z,18.63
2023-01-25T23:14:24.558Z,19.93
2023-01-25T23:16:52.287Z,19.63
2023-01-25T23:19:19.654Z,19.37
2023-01-25T23:21:46.930Z,21.63
2023-01-25T23:24:14.521Z,21.07
2023-01-25T23:26:46.685Z,23.83
2023-01-25T23:29:14.470Z,22.13
2023-01-25T23:31:41.993Z,23.53
2023-01-25T23:34:11.544Z,22.27
2023-01-25T23:36:39.592Z,22.50
2023-01-25T23:39:06.882Z,20.20
2023-01-25T23:41:34.201Z,21.67
2023-01-25T23:44:01.902Z,20.77
2023-01-25T23:46:29.424Z,21.37
2023-01-25T23:48:56.646Z,21.90
2023-01-25T23:51:23.884Z,21.83
2023-01-25T23:53:53.321Z,19.93
2023-01-25T23:56:21.686Z,22.07
2023-01-25T23:58:49.554Z,22.30
